sensor_id;sensor_type;location;lat;lon;timestamp;P1;durP1;ratioP1;P2;durP2;ratioP2
69305;SDS011;56427;51.580;4.656;2023-02-22T00:00:16;74.80;;;22.73;;
69305;SDS011;56427;51.580;4.656;2023-02-22T00:02:47;67.63;;;22.60;;
69305;SDS011;56427;51.580;4.656;2023-02-22T00:05:16;60.72;;;22.50;;
69305;SDS011;56427;51.580;4.656;2023-02-22T00:07:44;63.72;;;22.40;;
69305;SDS011;56427;51.580;4.656;2023-02-22T00:10:11;62.97;;;22.55;;
69305;SDS011;56427;51.580;4.656;2023-02-22T00:12:41;69.72;;;22.10;;
69305;SDS011;56427;51.580;4.656;2023-02-22T00:15:07;64.03;;;22.45;;
69305;SDS011;56427;51.580;4.656;2023-02-22T00:17:33;67.72;;;22.02;;
69305;SDS011;56427;51.580;4.656;2023-02-22T00:19:59;71.17;;;23.60;;
69305;SDS011;56427;51.580;4.656;2023-02-22T00:22:24;76.15;;;23.10;;
69305;SDS011;56427;51.580;4.656;2023-02-22T00:24:50;84.68;;;24.20;;
69305;SDS011;56427;51.580;4.656;2023-02-22T00:27:15;73.40;;;24.37;;
69305;SDS011;56427;51.580;4.656;2023-02-22T00:29:44;79.27;;;24.27;;
69305;SDS011;56427;51.580;4.656;2023-02-22T00:32:11;80.70;;;24.90;;
69305;SDS011;56427;51.580;4.656;2023-02-22T00:34:36;77.50;;;23.77;;
69305;SDS011;56427;51.580;4.656;2023-02-22T00:37:01;71.47;;;22.90;;
69305;SDS011;56427;51.580;4.656;2023-02-22T00:39:28;81.22;;;24.02;;
69305;SDS011;56427;51.580;4.656;2023-02-22T00:41:57;82.97;;;24.80;;
69305;SDS011;56427;51.580;4.656;2023-02-22T00:44:22;82.72;;;24.25;;
69305;SDS011;56427;51.580;4.656;2023-02-22T00:46:48;86.60;;;25.37;;
69305;SDS011;56427;51.580;4.656;2023-02-22T00:49:14;90.80;;;25.80;;
69305;SDS011;56427;51.580;4.656;2023-02-22T00:51:40;89.88;;;26.65;;
69305;SDS011;56427;51.580;4.656;2023-02-22T00:54:06;88.57;;;25.52;;
69305;SDS011;56427;51.580;4.656;2023-02-22T00:56:32;87.83;;;25.90;;
69305;SDS011;56427;51.580;4.656;2023-02-22T00:58:58;95.35;;;25.88;;
69305;SDS011;56427;51.580;4.656;2023-02-22T01:01:25;104.90;;;28.23;;
69305;SDS011;56427;51.580;4.656;2023-02-22T01:03:51;99.77;;;27.47;;
69305;SDS011;56427;51.580;4.656;2023-02-22T01:06:16;105.50;;;27.80;;
69305;SDS011;56427;51.580;4.656;2023-02-22T01:08:44;108.87;;;28.03;;
69305;SDS011;56427;51.580;4.656;2023-02-22T01:11:12;109.47;;;28.53;;
69305;SDS011;56427;51.580;4.656;2023-02-22T01:13:39;96.28;;;26.73;;
69305;SDS011;56427;51.580;4.656;2023-02-22T01:16:04;124.47;;;29.63;;
69305;SDS011;56427;51.580;4.656;2023-02-22T01:18:32;116.67;;;28.37;;
69305;SDS011;56427;51.580;4.656;2023-02-22T01:20:59;124.65;;;27.48;;
69305;SDS011;56427;51.580;4.656;2023-02-22T01:23:25;123.65;;;29.92;;
69305;SDS011;56427;51.580;4.656;2023-02-22T01:25:51;142.77;;;29.83;;
69305;SDS011;56427;51.580;4.656;2023-02-22T01:28:16;137.93;;;30.42;;
69305;SDS011;56427;51.580;4.656;2023-02-22T01:30:42;141.93;;;32.37;;
69305;SDS011;56427;51.580;4.656;2023-02-22T01:33:07;147.63;;;32.97;;
69305;SDS011;56427;51.580;4.656;2023-02-22T01:35:34;176.95;;;29.88;;
69305;SDS011;56427;51.580;4.656;2023-02-22T01:38:02;137.52;;;29.20;;
69305;SDS011;56427;51.580;4.656;2023-02-22T01:40:38;254.77;;;32.60;;
69305;SDS011;56427;51.580;4.656;2023-02-22T01:43:21;138.27;;;29.77;;
69305;SDS011;56427;51.580;4.656;2023-02-22T01:51:26;184.52;;;31.58;;
69305;SDS011;56427;51.580;4.656;2023-02-22T01:53:56;210.38;;;29.42;;
69305;SDS011;56427;51.580;4.656;2023-02-22T01:56:26;157.82;;;29.45;;
69305;SDS011;56427;51.580;4.656;2023-02-22T01:59:01;199.50;;;29.65;;
69305;SDS011;56427;51.580;4.656;2023-02-22T02:01:30;230.35;;;31.63;;
69305;SDS011;56427;51.580;4.656;2023-02-22T02:03:57;137.23;;;27.48;;
69305;SDS011;56427;51.580;4.656;2023-02-22T02:06:25;319.05;;;34.80;;
69305;SDS011;56427;51.580;4.656;2023-02-22T02:11:44;196.93;;;29.45;;
69305;SDS011;56427;51.580;4.656;2023-02-22T02:14:10;192.93;;;29.42;;
69305;SDS011;56427;51.580;4.656;2023-02-22T02:16:38;390.17;;;39.25;;
69305;SDS011;56427;51.580;4.656;2023-02-22T02:19:09;291.13;;;33.65;;
69305;SDS011;56427;51.580;4.656;2023-02-22T02:22:13;417.13;;;37.50;;
69305;SDS011;56427;51.580;4.656;2023-02-22T02:24:55;438.48;;;38.33;;
69305;SDS011;56427;51.580;4.656;2023-02-22T02:30:57;245.40;;;31.52;;
69305;SDS011;56427;51.580;4.656;2023-02-22T02:33:50;327.42;;;34.67;;
69305;SDS011;56427;51.580;4.656;2023-02-22T02:39:27;350.60;;;37.58;;
69305;SDS011;56427;51.580;4.656;2023-02-22T02:41:57;307.80;;;31.10;;
69305;SDS011;56427;51.580;4.656;2023-02-22T02:46:59;385.23;;;34.90;;
69305;SDS011;56427;51.580;4.656;2023-02-22T02:49:45;338.27;;;35.13;;
69305;SDS011;56427;51.580;4.656;2023-02-22T02:52:15;442.63;;;36.00;;
69305;SDS011;56427;51.580;4.656;2023-02-22T02:54:44;383.40;;;37.78;;
69305;SDS011;56427;51.580;4.656;2023-02-22T02:57:11;394.15;;;35.72;;
69305;SDS011;56427;51.580;4.656;2023-02-22T02:59:36;291.08;;;31.58;;
69305;SDS011;56427;51.580;4.656;2023-02-22T03:08:12;301.40;;;29.67;;
69305;SDS011;56427;51.580;4.656;2023-02-22T03:16:31;335.10;;;34.43;;
69305;SDS011;56427;51.580;4.656;2023-02-22T03:19:10;379.25;;;35.17;;
69305;SDS011;56427;51.580;4.656;2023-02-22T03:26:50;223.43;;;29.05;;
69305;SDS011;56427;51.580;4.656;2023-02-22T03:29:22;298.50;;;33.03;;
69305;SDS011;56427;51.580;4.656;2023-02-22T03:31:52;196.07;;;28.55;;
69305;SDS011;56427;51.580;4.656;2023-02-22T03:34:26;218.57;;;28.48;;
69305;SDS011;56427;51.580;4.656;2023-02-22T03:37:16;215.38;;;29.27;;
69305;SDS011;56427;51.580;4.656;2023-02-22T03:39:46;338.42;;;33.50;;
69305;SDS011;56427;51.580;4.656;2023-02-22T03:42:16;286.50;;;33.67;;
69305;SDS011;56427;51.580;4.656;2023-02-22T03:44:47;262.13;;;28.70;;
69305;SDS011;56427;51.580;4.656;2023-02-22T03:47:16;295.50;;;29.58;;
69305;SDS011;56427;51.580;4.656;2023-02-22T03:52:21;195.77;;;26.70;;
69305;SDS011;56427;51.580;4.656;2023-02-22T03:54:50;201.83;;;24.70;;
69305;SDS011;56427;51.580;4.656;2023-02-22T03:57:27;258.23;;;30.20;;
69305;SDS011;56427;51.580;4.656;2023-02-22T03:59:57;224.55;;;27.40;;
69305;SDS011;56427;51.580;4.656;2023-02-22T04:02:23;290.03;;;32.50;;
69305;SDS011;56427;51.580;4.656;2023-02-22T04:04:48;177.03;;;26.47;;
69305;SDS011;56427;51.580;4.656;2023-02-22T04:07:14;121.78;;;23.58;;
69305;SDS011;56427;51.580;4.656;2023-02-22T04:09:40;238.00;;;29.27;;
69305;SDS011;56427;51.580;4.656;2023-02-22T04:12:05;188.60;;;26.30;;
69305;SDS011;56427;51.580;4.656;2023-02-22T04:14:31;148.80;;;24.97;;
69305;SDS011;56427;51.580;4.656;2023-02-22T04:16:56;251.93;;;29.57;;
69305;SDS011;56427;51.580;4.656;2023-02-22T04:19:22;132.02;;;25.90;;
69305;SDS011;56427;51.580;4.656;2023-02-22T04:21:48;190.90;;;27.45;;
69305;SDS011;56427;51.580;4.656;2023-02-22T04:24:13;154.87;;;26.83;;
69305;SDS011;56427;51.580;4.656;2023-02-22T04:26:39;182.43;;;27.17;;
69305;SDS011;56427;51.580;4.656;2023-02-22T04:29:04;185.70;;;27.37;;
69305;SDS011;56427;51.580;4.656;2023-02-22T04:31:30;176.82;;;28.38;;
69305;SDS011;56427;51.580;4.656;2023-02-22T04:33:57;160.10;;;27.33;;
69305;SDS011;56427;51.580;4.656;2023-02-22T04:36:23;140.48;;;24.45;;
69305;SDS011;56427;51.580;4.656;2023-02-22T04:38:48;160.63;;;26.33;;
69305;SDS011;56427;51.580;4.656;2023-02-22T04:41:15;130.33;;;25.23;;
69305;SDS011;56427;51.580;4.656;2023-02-22T04:43:42;135.77;;;24.05;;
69305;SDS011;56427;51.580;4.656;2023-02-22T04:46:07;172.33;;;27.83;;
69305;SDS011;56427;51.580;4.656;2023-02-22T04:48:33;156.33;;;24.00;;
69305;SDS011;56427;51.580;4.656;2023-02-22T04:50:58;141.00;;;25.50;;
69305;SDS011;56427;51.580;4.656;2023-02-22T04:53:23;223.43;;;28.23;;
69305;SDS011;56427;51.580;4.656;2023-02-22T04:55:48;170.00;;;27.03;;
69305;SDS011;56427;51.580;4.656;2023-02-22T04:58:14;189.20;;;27.37;;
69305;SDS011;56427;51.580;4.656;2023-02-22T05:00:39;175.18;;;25.00;;
69305;SDS011;56427;51.580;4.656;2023-02-22T05:03:04;123.00;;;22.65;;
69305;SDS011;56427;51.580;4.656;2023-02-22T05:05:30;101.77;;;22.33;;
69305;SDS011;56427;51.580;4.656;2023-02-22T05:07:55;99.80;;;23.37;;
69305;SDS011;56427;51.580;4.656;2023-02-22T05:10:21;106.15;;;23.73;;
69305;SDS011;56427;51.580;4.656;2023-02-22T05:12:47;84.70;;;21.13;;
69305;SDS011;56427;51.580;4.656;2023-02-22T05:15:16;115.77;;;22.50;;
69305;SDS011;56427;51.580;4.656;2023-02-22T05:17:44;82.20;;;20.95;;
69305;SDS011;56427;51.580;4.656;2023-02-22T05:20:15;83.60;;;20.73;;
69305;SDS011;56427;51.580;4.656;2023-02-22T05:22:45;80.43;;;21.98;;
69305;SDS011;56427;51.580;4.656;2023-02-22T05:25:11;84.93;;;22.33;;
69305;SDS011;56427;51.580;4.656;2023-02-22T05:27:36;80.15;;;20.23;;
69305;SDS011;56427;51.580;4.656;2023-02-22T05:30:02;75.25;;;20.25;;
69305;SDS011;56427;51.580;4.656;2023-02-22T05:32:27;117.00;;;23.90;;
69305;SDS011;56427;51.580;4.656;2023-02-22T05:34:53;78.27;;;20.77;;
69305;SDS011;56427;51.580;4.656;2023-02-22T05:37:18;100.82;;;21.77;;
69305;SDS011;56427;51.580;4.656;2023-02-22T05:39:43;87.38;;;20.05;;
69305;SDS011;56427;51.580;4.656;2023-02-22T05:42:10;92.33;;;18.93;;
69305;SDS011;56427;51.580;4.656;2023-02-22T05:44:36;83.55;;;20.27;;
69305;SDS011;56427;51.580;4.656;2023-02-22T05:47:01;135.00;;;22.40;;
69305;SDS011;56427;51.580;4.656;2023-02-22T05:49:26;72.47;;;19.47;;
69305;SDS011;56427;51.580;4.656;2023-02-22T05:51:52;78.50;;;20.97;;
69305;SDS011;56427;51.580;4.656;2023-02-22T05:54:23;76.35;;;20.35;;
69305;SDS011;56427;51.580;4.656;2023-02-22T05:56:48;70.87;;;19.20;;
69305;SDS011;56427;51.580;4.656;2023-02-22T05:59:13;78.30;;;18.27;;
69305;SDS011;56427;51.580;4.656;2023-02-22T06:01:39;66.40;;;19.50;;
69305;SDS011;56427;51.580;4.656;2023-02-22T06:04:04;67.87;;;19.10;;
69305;SDS011;56427;51.580;4.656;2023-02-22T06:06:29;65.65;;;19.00;;
69305;SDS011;56427;51.580;4.656;2023-02-22T06:08:54;72.13;;;20.03;;
69305;SDS011;56427;51.580;4.656;2023-02-22T06:11:20;79.20;;;21.10;;
69305;SDS011;56427;51.580;4.656;2023-02-22T06:13:49;75.37;;;21.27;;
69305;SDS011;56427;51.580;4.656;2023-02-22T06:16:16;65.88;;;18.35;;
69305;SDS011;56427;51.580;4.656;2023-02-22T06:18:41;90.20;;;21.60;;
69305;SDS011;56427;51.580;4.656;2023-02-22T06:21:07;74.20;;;19.20;;
69305;SDS011;56427;51.580;4.656;2023-02-22T06:23:32;67.25;;;18.17;;
69305;SDS011;56427;51.580;4.656;2023-02-22T06:25:58;84.67;;;19.83;;
69305;SDS011;56427;51.580;4.656;2023-02-22T06:28:23;68.67;;;19.13;;
69305;SDS011;56427;51.580;4.656;2023-02-22T06:30:48;65.63;;;18.73;;
69305;SDS011;56427;51.580;4.656;2023-02-22T06:33:13;80.07;;;19.20;;
69305;SDS011;56427;51.580;4.656;2023-02-22T06:35:39;77.30;;;19.23;;
69305;SDS011;56427;51.580;4.656;2023-02-22T06:38:04;79.20;;;20.10;;
69305;SDS011;56427;51.580;4.656;2023-02-22T06:40:30;70.13;;;17.73;;
69305;SDS011;56427;51.580;4.656;2023-02-22T06:42:56;69.43;;;19.83;;
69305;SDS011;56427;51.580;4.656;2023-02-22T06:45:22;67.03;;;20.27;;
69305;SDS011;56427;51.580;4.656;2023-02-22T06:47:50;62.20;;;18.87;;
69305;SDS011;56427;51.580;4.656;2023-02-22T06:52:46;62.30;;;18.73;;
69305;SDS011;56427;51.580;4.656;2023-02-22T06:55:15;68.60;;;19.77;;
69305;SDS011;56427;51.580;4.656;2023-02-22T06:57:50;82.38;;;19.95;;
69305;SDS011;56427;51.580;4.656;2023-02-22T07:00:17;62.37;;;18.23;;
69305;SDS011;56427;51.580;4.656;2023-02-22T07:02:44;68.75;;;17.90;;
69305;SDS011;56427;51.580;4.656;2023-02-22T07:05:11;82.50;;;21.20;;
69305;SDS011;56427;51.580;4.656;2023-02-22T07:07:37;82.70;;;20.55;;
69305;SDS011;56427;51.580;4.656;2023-02-22T07:10:05;93.35;;;22.08;;
69305;SDS011;56427;51.580;4.656;2023-02-22T07:12:32;66.97;;;19.97;;
69305;SDS011;56427;51.580;4.656;2023-02-22T07:14:57;109.88;;;20.98;;
69305;SDS011;56427;51.580;4.656;2023-02-22T07:17:23;68.03;;;19.63;;
69305;SDS011;56427;51.580;4.656;2023-02-22T07:19:48;70.77;;;18.97;;
69305;SDS011;56427;51.580;4.656;2023-02-22T07:22:13;97.47;;;22.50;;
69305;SDS011;56427;51.580;4.656;2023-02-22T07:24:39;85.00;;;20.23;;
69305;SDS011;56427;51.580;4.656;2023-02-22T07:27:05;79.93;;;19.83;;
69305;SDS011;56427;51.580;4.656;2023-02-22T07:29:30;82.57;;;20.27;;
69305;SDS011;56427;51.580;4.656;2023-02-22T07:31:56;75.50;;;21.33;;
69305;SDS011;56427;51.580;4.656;2023-02-22T07:34:21;68.82;;;20.60;;
69305;SDS011;56427;51.580;4.656;2023-02-22T07:36:47;71.57;;;20.20;;
69305;SDS011;56427;51.580;4.656;2023-02-22T07:39:12;68.97;;;18.65;;
69305;SDS011;56427;51.580;4.656;2023-02-22T07:41:38;83.57;;;21.10;;
69305;SDS011;56427;51.580;4.656;2023-02-22T07:44:03;76.27;;;19.90;;
69305;SDS011;56427;51.580;4.656;2023-02-22T07:46:29;77.57;;;21.20;;
69305;SDS011;56427;51.580;4.656;2023-02-22T07:48:54;71.70;;;20.37;;
69305;SDS011;56427;51.580;4.656;2023-02-22T07:51:19;70.53;;;19.37;;
69305;SDS011;56427;51.580;4.656;2023-02-22T07:53:45;76.78;;;21.65;;
69305;SDS011;56427;51.580;4.656;2023-02-22T07:56:10;59.50;;;20.00;;
69305;SDS011;56427;51.580;4.656;2023-02-22T07:58:35;65.50;;;19.33;;
69305;SDS011;56427;51.580;4.656;2023-02-22T08:01:01;60.87;;;18.43;;
69305;SDS011;56427;51.580;4.656;2023-02-22T08:03:29;54.00;;;20.10;;
69305;SDS011;56427;51.580;4.656;2023-02-22T08:05:58;58.78;;;18.02;;
69305;SDS011;56427;51.580;4.656;2023-02-22T08:08:24;63.42;;;19.80;;
69305;SDS011;56427;51.580;4.656;2023-02-22T08:10:50;61.15;;;19.73;;
69305;SDS011;56427;51.580;4.656;2023-02-22T08:13:16;56.93;;;18.77;;
69305;SDS011;56427;51.580;4.656;2023-02-22T08:15:42;64.05;;;20.30;;
69305;SDS011;56427;51.580;4.656;2023-02-22T08:18:12;61.40;;;19.75;;
69305;SDS011;56427;51.580;4.656;2023-02-22T08:20:40;56.75;;;20.70;;
69305;SDS011;56427;51.580;4.656;2023-02-22T08:23:06;55.33;;;17.73;;
69305;SDS011;56427;51.580;4.656;2023-02-22T08:25:33;55.13;;;18.98;;
69305;SDS011;56427;51.580;4.656;2023-02-22T08:28:00;54.28;;;20.73;;
69305;SDS011;56427;51.580;4.656;2023-02-22T08:30:29;52.55;;;18.40;;
69305;SDS011;56427;51.580;4.656;2023-02-22T08:32:55;53.10;;;19.67;;
69305;SDS011;56427;51.580;4.656;2023-02-22T08:35:22;52.92;;;19.10;;
69305;SDS011;56427;51.580;4.656;2023-02-22T08:37:49;48.05;;;17.67;;
69305;SDS011;56427;51.580;4.656;2023-02-22T08:40:23;45.33;;;18.15;;
69305;SDS011;56427;51.580;4.656;2023-02-22T08:42:51;42.67;;;16.88;;
69305;SDS011;56427;51.580;4.656;2023-02-22T08:45:17;42.80;;;17.60;;
69305;SDS011;56427;51.580;4.656;2023-02-22T08:47:43;40.22;;;15.43;;
69305;SDS011;56427;51.580;4.656;2023-02-22T08:50:14;44.47;;;17.45;;
69305;SDS011;56427;51.580;4.656;2023-02-22T08:52:50;36.53;;;15.75;;
69305;SDS011;56427;51.580;4.656;2023-02-22T08:55:23;36.58;;;16.55;;
69305;SDS011;56427;51.580;4.656;2023-02-22T08:57:50;35.45;;;15.77;;
69305;SDS011;56427;51.580;4.656;2023-02-22T09:00:15;41.63;;;17.33;;
69305;SDS011;56427;51.580;4.656;2023-02-22T09:02:42;35.28;;;15.50;;
69305;SDS011;56427;51.580;4.656;2023-02-22T09:05:08;39.28;;;16.42;;
69305;SDS011;56427;51.580;4.656;2023-02-22T09:07:33;30.97;;;15.33;;
69305;SDS011;56427;51.580;4.656;2023-02-22T09:09:59;30.87;;;14.13;;
69305;SDS011;56427;51.580;4.656;2023-02-22T09:12:24;32.40;;;15.90;;
69305;SDS011;56427;51.580;4.656;2023-02-22T09:14:50;33.92;;;14.75;;
69305;SDS011;56427;51.580;4.656;2023-02-22T09:17:16;31.83;;;14.27;;
69305;SDS011;56427;51.580;4.656;2023-02-22T09:19:41;35.63;;;15.47;;
69305;SDS011;56427;51.580;4.656;2023-02-22T09:22:07;30.50;;;14.48;;
69305;SDS011;56427;51.580;4.656;2023-02-22T09:24:32;32.10;;;15.43;;
69305;SDS011;56427;51.580;4.656;2023-02-22T09:27:01;33.17;;;14.60;;
69305;SDS011;56427;51.580;4.656;2023-02-22T09:29:28;35.38;;;15.07;;
69305;SDS011;56427;51.580;4.656;2023-02-22T09:31:54;35.15;;;16.00;;
69305;SDS011;56427;51.580;4.656;2023-02-22T09:34:21;39.05;;;17.02;;
69305;SDS011;56427;51.580;4.656;2023-02-22T09:36:53;37.93;;;16.00;;
69305;SDS011;56427;51.580;4.656;2023-02-22T09:39:21;32.10;;;14.30;;
69305;SDS011;56427;51.580;4.656;2023-02-22T09:41:51;37.50;;;15.38;;
69305;SDS011;56427;51.580;4.656;2023-02-22T09:47:01;35.10;;;15.87;;
69305;SDS011;56427;51.580;4.656;2023-02-22T09:52:20;30.92;;;14.77;;
69305;SDS011;56427;51.580;4.656;2023-02-22T09:57:38;34.03;;;15.05;;
69305;SDS011;56427;51.580;4.656;2023-02-22T10:00:11;34.60;;;15.73;;
69305;SDS011;56427;51.580;4.656;2023-02-22T10:05:31;38.13;;;16.50;;
69305;SDS011;56427;51.580;4.656;2023-02-22T10:08:07;34.80;;;15.55;;
69305;SDS011;56427;51.580;4.656;2023-02-22T10:10:39;34.50;;;15.98;;
69305;SDS011;56427;51.580;4.656;2023-02-22T10:21:25;38.00;;;16.10;;
69305;SDS011;56427;51.580;4.656;2023-02-22T10:26:34;34.70;;;15.77;;
69305;SDS011;56427;51.580;4.656;2023-02-22T10:31:51;33.83;;;15.82;;
69305;SDS011;56427;51.580;4.656;2023-02-22T10:34:26;33.47;;;16.52;;
69305;SDS011;56427;51.580;4.656;2023-02-22T10:36:58;35.88;;;15.45;;
69305;SDS011;56427;51.580;4.656;2023-02-22T10:39:33;32.13;;;15.47;;
69305;SDS011;56427;51.580;4.656;2023-02-22T10:42:05;32.95;;;15.60;;
69305;SDS011;56427;51.580;4.656;2023-02-22T10:44:33;30.92;;;16.27;;
69305;SDS011;56427;51.580;4.656;2023-02-22T10:46:59;37.03;;;16.13;;
69305;SDS011;56427;51.580;4.656;2023-02-22T10:49:29;29.23;;;15.48;;
69305;SDS011;56427;51.580;4.656;2023-02-22T10:52:00;28.67;;;14.10;;
69305;SDS011;56427;51.580;4.656;2023-02-22T10:54:32;30.15;;;14.85;;
69305;SDS011;56427;51.580;4.656;2023-02-22T10:57:02;33.55;;;15.65;;
69305;SDS011;56427;51.580;4.656;2023-02-22T11:02:47;27.60;;;14.35;;
69305;SDS011;56427;51.580;4.656;2023-02-22T11:04:54;26.15;;;14.38;;
69305;SDS011;56427;51.580;4.656;2023-02-22T11:07:31;27.05;;;14.45;;
69305;SDS011;56427;51.580;4.656;2023-02-22T11:10:00;24.75;;;12.88;;
69305;SDS011;56427;51.580;4.656;2023-02-22T11:14:56;27.98;;;13.57;;
69305;SDS011;56427;51.580;4.656;2023-02-22T11:17:27;28.10;;;14.38;;
69305;SDS011;56427;51.580;4.656;2023-02-22T11:19:56;29.48;;;14.70;;
69305;SDS011;56427;51.580;4.656;2023-02-22T11:22:27;26.67;;;13.65;;
69305;SDS011;56427;51.580;4.656;2023-02-22T11:25:01;24.73;;;13.13;;
69305;SDS011;56427;51.580;4.656;2023-02-22T11:27:36;22.60;;;12.70;;
69305;SDS011;56427;51.580;4.656;2023-02-22T11:37:52;25.47;;;13.53;;
69305;SDS011;56427;51.580;4.656;2023-02-22T11:40:25;23.05;;;13.77;;
69305;SDS011;56427;51.580;4.656;2023-02-22T11:43:36;26.40;;;14.27;;
69305;SDS011;56427;51.580;4.656;2023-02-22T11:45:56;22.43;;;13.17;;
69305;SDS011;56427;51.580;4.656;2023-02-22T11:48:28;24.08;;;13.52;;
69305;SDS011;56427;51.580;4.656;2023-02-22T11:51:15;27.67;;;14.00;;
69305;SDS011;56427;51.580;4.656;2023-02-22T11:54:06;24.67;;;12.80;;
69305;SDS011;56427;51.580;4.656;2023-02-22T11:57:18;25.13;;;14.07;;
69305;SDS011;56427;51.580;4.656;2023-02-22T12:03:00;23.50;;;13.60;;
69305;SDS011;56427;51.580;4.656;2023-02-22T12:22:24;25.35;;;14.18;;
69305;SDS011;56427;51.580;4.656;2023-02-22T12:27:24;22.53;;;14.43;;
69305;SDS011;56427;51.580;4.656;2023-02-22T12:29:54;22.85;;;14.15;;
69305;SDS011;56427;51.580;4.656;2023-02-22T12:35:11;35.53;;;14.88;;
69305;SDS011;56427;51.580;4.656;2023-02-22T12:37:58;26.83;;;15.30;;
69305;SDS011;56427;51.580;4.656;2023-02-22T12:40:27;21.40;;;13.23;;
69305;SDS011;56427;51.580;4.656;2023-02-22T12:43:01;28.90;;;14.25;;
69305;SDS011;56427;51.580;4.656;2023-02-22T12:53:39;25.17;;;14.37;;
69305;SDS011;56427;51.580;4.656;2023-02-22T13:01:31;25.33;;;14.40;;
69305;SDS011;56427;51.580;4.656;2023-02-22T13:04:07;29.33;;;16.13;;
69305;SDS011;56427;51.580;4.656;2023-02-22T13:06:36;25.73;;;15.30;;
69305;SDS011;56427;51.580;4.656;2023-02-22T13:17:26;27.05;;;15.82;;
69305;SDS011;56427;51.580;4.656;2023-02-22T13:20:02;27.83;;;15.90;;
69305;SDS011;56427;51.580;4.656;2023-02-22T13:25:53;28.42;;;16.15;;
69305;SDS011;56427;51.580;4.656;2023-02-22T13:28:35;27.83;;;15.00;;
69305;SDS011;56427;51.580;4.656;2023-02-22T13:31:13;28.73;;;16.35;;
69305;SDS011;56427;51.580;4.656;2023-02-22T13:39:43;30.23;;;19.80;;
69305;SDS011;56427;51.580;4.656;2023-02-22T13:51:35;33.70;;;22.13;;
69305;SDS011;56427;51.580;4.656;2023-02-22T13:53:55;34.58;;;21.63;;
69305;SDS011;56427;51.580;4.656;2023-02-22T13:56:26;39.20;;;21.90;;
69305;SDS011;56427;51.580;4.656;2023-02-22T13:58:56;36.28;;;21.73;;
69305;SDS011;56427;51.580;4.656;2023-02-22T14:01:36;38.33;;;21.80;;
69305;SDS011;56427;51.580;4.656;2023-02-22T14:06:43;40.72;;;23.40;;
69305;SDS011;56427;51.580;4.656;2023-02-22T14:09:13;39.25;;;23.17;;
69305;SDS011;56427;51.580;4.656;2023-02-22T14:12:02;41.10;;;23.25;;
69305;SDS011;56427;51.580;4.656;2023-02-22T14:14:27;40.13;;;22.80;;
69305;SDS011;56427;51.580;4.656;2023-02-22T14:19:58;42.13;;;23.75;;
69305;SDS011;56427;51.580;4.656;2023-02-22T14:22:29;41.33;;;24.33;;
69305;SDS011;56427;51.580;4.656;2023-02-22T14:24:55;38.37;;;22.67;;
69305;SDS011;56427;51.580;4.656;2023-02-22T14:27:21;38.92;;;24.50;;
69305;SDS011;56427;51.580;4.656;2023-02-22T14:29:51;40.05;;;25.10;;
69305;SDS011;56427;51.580;4.656;2023-02-22T14:32:28;39.40;;;24.30;;
69305;SDS011;56427;51.580;4.656;2023-02-22T14:34:57;40.70;;;26.08;;
69305;SDS011;56427;51.580;4.656;2023-02-22T14:37:25;42.23;;;25.57;;
69305;SDS011;56427;51.580;4.656;2023-02-22T14:39:59;42.10;;;25.83;;
69305;SDS011;56427;51.580;4.656;2023-02-22T14:42:44;40.55;;;25.48;;
69305;SDS011;56427;51.580;4.656;2023-02-22T14:45:24;44.90;;;27.52;;
69305;SDS011;56427;51.580;4.656;2023-02-22T14:48:05;45.85;;;27.92;;
69305;SDS011;56427;51.580;4.656;2023-02-22T14:50:46;51.57;;;30.03;;
69305;SDS011;56427;51.580;4.656;2023-02-22T14:56:39;47.03;;;29.42;;
69305;SDS011;56427;51.580;4.656;2023-02-22T14:59:17;46.45;;;28.65;;
69305;SDS011;56427;51.580;4.656;2023-02-22T15:01:43;48.58;;;29.05;;
69305;SDS011;56427;51.580;4.656;2023-02-22T15:04:18;53.23;;;30.27;;
69305;SDS011;56427;51.580;4.656;2023-02-22T15:06:46;51.15;;;32.13;;
69305;SDS011;56427;51.580;4.656;2023-02-22T15:09:18;55.30;;;32.13;;
69305;SDS011;56427;51.580;4.656;2023-02-22T15:11:52;55.53;;;33.38;;
69305;SDS011;56427;51.580;4.656;2023-02-22T15:14:21;54.08;;;33.83;;
69305;SDS011;56427;51.580;4.656;2023-02-22T15:16:50;56.03;;;33.43;;
69305;SDS011;56427;51.580;4.656;2023-02-22T15:19:26;58.72;;;35.78;;
69305;SDS011;56427;51.580;4.656;2023-02-22T15:21:53;56.28;;;33.08;;
69305;SDS011;56427;51.580;4.656;2023-02-22T15:24:22;58.20;;;34.88;;
69305;SDS011;56427;51.580;4.656;2023-02-22T15:26:50;66.80;;;36.28;;
69305;SDS011;56427;51.580;4.656;2023-02-22T15:31:48;69.57;;;39.60;;
69305;SDS011;56427;51.580;4.656;2023-02-22T15:36:43;72.07;;;42.38;;
69305;SDS011;56427;51.580;4.656;2023-02-22T15:39:26;74.97;;;39.78;;
69305;SDS011;56427;51.580;4.656;2023-02-22T15:42:00;70.90;;;40.63;;
69305;SDS011;56427;51.580;4.656;2023-02-22T15:44:26;81.57;;;44.45;;
69305;SDS011;56427;51.580;4.656;2023-02-22T15:46:52;77.65;;;43.47;;
69305;SDS011;56427;51.580;4.656;2023-02-22T15:49:20;77.47;;;44.83;;
69305;SDS011;56427;51.580;4.656;2023-02-22T15:51:47;78.55;;;44.33;;
69305;SDS011;56427;51.580;4.656;2023-02-22T15:54:26;78.93;;;43.63;;
69305;SDS011;56427;51.580;4.656;2023-02-22T15:56:51;88.57;;;46.88;;
69305;SDS011;56427;51.580;4.656;2023-02-22T15:59:21;80.53;;;42.60;;
69305;SDS011;56427;51.580;4.656;2023-02-22T16:01:53;82.68;;;41.20;;
69305;SDS011;56427;51.580;4.656;2023-02-22T16:04:21;80.28;;;43.45;;
69305;SDS011;56427;51.580;4.656;2023-02-22T16:06:50;81.43;;;42.47;;
69305;SDS011;56427;51.580;4.656;2023-02-22T16:09:26;82.40;;;44.17;;
69305;SDS011;56427;51.580;4.656;2023-02-22T16:12:09;89.67;;;45.83;;
69305;SDS011;56427;51.580;4.656;2023-02-22T16:19:54;98.07;;;48.17;;
69305;SDS011;56427;51.580;4.656;2023-02-22T16:27:46;96.53;;;47.20;;
69305;SDS011;56427;51.580;4.656;2023-02-22T16:32:46;101.70;;;50.25;;
69305;SDS011;56427;51.580;4.656;2023-02-22T16:35:13;115.45;;;52.42;;
69305;SDS011;56427;51.580;4.656;2023-02-22T16:37:43;110.13;;;49.20;;
69305;SDS011;56427;51.580;4.656;2023-02-22T16:40:20;105.07;;;46.87;;
69305;SDS011;56427;51.580;4.656;2023-02-22T16:42:48;104.82;;;47.42;;
69305;SDS011;56427;51.580;4.656;2023-02-22T16:45:15;102.85;;;48.72;;
69305;SDS011;56427;51.580;4.656;2023-02-22T16:47:42;117.50;;;49.70;;
69305;SDS011;56427;51.580;4.656;2023-02-22T16:50:07;113.57;;;49.10;;
69305;SDS011;56427;51.580;4.656;2023-02-22T16:52:33;105.43;;;47.03;;
69305;SDS011;56427;51.580;4.656;2023-02-22T16:54:58;108.13;;;46.85;;
69305;SDS011;56427;51.580;4.656;2023-02-22T16:57:25;101.47;;;44.67;;
69305;SDS011;56427;51.580;4.656;2023-02-22T16:59:53;118.80;;;46.72;;
69305;SDS011;56427;51.580;4.656;2023-02-22T17:02:20;101.97;;;43.78;;
69305;SDS011;56427;51.580;4.656;2023-02-22T17:04:46;116.30;;;45.27;;
69305;SDS011;56427;51.580;4.656;2023-02-22T17:07:17;102.43;;;44.55;;
69305;SDS011;56427;51.580;4.656;2023-02-22T17:09:47;106.63;;;44.00;;
69305;SDS011;56427;51.580;4.656;2023-02-22T17:12:14;115.10;;;45.47;;
69305;SDS011;56427;51.580;4.656;2023-02-22T17:14:40;109.43;;;44.17;;
69305;SDS011;56427;51.580;4.656;2023-02-22T17:17:10;115.18;;;46.42;;
69305;SDS011;56427;51.580;4.656;2023-02-22T17:19:37;108.32;;;45.10;;